createdAt,value
2023-05-11T00:02:06.021Z,13.24
2023-05-11T00:04:33.219Z,13.25
2023-05-11T00:07:00.878Z,13.23
2023-05-11T00:09:28.536Z,13.22
2023-05-11T00:11:55.762Z,13.20
2023-05-11T00:14:22.768Z,13.17
2023-05-11T00:16:49.775Z,13.12
2023-05-11T00:19:17.205Z,13.06
2023-05-11T00:21:44.222Z,13.04
2023-05-11T00:24:11.889Z,13.02
2023-05-11T00:26:38.918Z,13.01
2023-05-11T00:29:06.341Z,12.98
2023-05-11T00:31:33.798Z,12.95
2023-05-11T00:34:01.106Z,12.95
2023-05-11T00:36:28.362Z,12.92
2023-05-11T00:38:55.664Z,12.91
2023-05-11T00:41:23.251Z,12.91
2023-05-11T00:43:50.628Z,12.92
2023-05-11T00:46:18.050Z,12.90
2023-05-11T00:48:45.147Z,12.84
2023-05-11T00:51:12.400Z,12.80
2023-05-11T00:53:39.477Z,12.79
2023-05-11T00:56:06.977Z,12.79
2023-05-11T00:58:33.981Z,12.78
2023-05-11T01:01:01.117Z,12.78
2023-05-11T01:03:28.199Z,12.78
2023-05-11T01:06:12.291Z,12.78
2023-05-11T01:08:46.965Z,12.74
2023-05-11T01:11:38.059Z,12.71
2023-05-11T01:14:09.279Z,12.68
2023-05-11T01:16:37.500Z,12.65
2023-05-11T01:19:11.786Z,12.64
2023-05-11T01:21:39.078Z,12.63
2023-05-11T01:24:27.634Z,12.62
2023-05-11T01:27:03.858Z,12.62
2023-05-11T01:29:34.155Z,12.62
2023-05-11T01:32:01.253Z,12.60
2023-05-11T01:34:30.776Z,12.64
2023-05-11T01:36:59.220Z,12.65
2023-05-11T01:39:50.154Z,12.63
2023-05-11T01:42:20.302Z,12.61
2023-05-11T01:44:47.431Z,12.59
2023-05-11T01:47:14.550Z,12.62
2023-05-11T01:49:41.554Z,12.64
2023-05-11T01:52:09.109Z,12.64
2023-05-11T01:54:36.366Z,12.65
2023-05-11T01:57:03.465Z,12.63
2023-05-11T01:59:30.415Z,12.64
2023-05-11T02:01:58.098Z,12.65
2023-05-11T02:04:25.488Z,12.64
2023-05-11T02:06:53.384Z,12.66
2023-05-11T02:09:20.477Z,12.70
2023-05-11T02:11:47.901Z,12.73
2023-05-11T02:14:18.040Z,12.72
2023-05-11T02:16:45.214Z,12.74
2023-05-11T02:19:12.621Z,12.77
2023-05-11T02:21:39.929Z,12.82
2023-05-11T02:24:07.186Z,12.87
2023-05-11T02:26:34.340Z,12.87
2023-05-11T02:29:01.999Z,12.94
2023-05-11T02:31:30.075Z,12.99
2023-05-11T02:34:00.760Z,13.07
2023-05-11T02:36:28.911Z,13.13
2023-05-11T02:39:02.773Z,13.15
2023-05-11T02:41:30.281Z,13.21
2023-05-11T02:44:00.510Z,13.26
2023-05-11T02:46:29.850Z,13.33
2023-05-11T02:49:01.247Z,13.42
2023-05-11T02:51:37.761Z,13.51
2023-05-11T02:54:07.268Z,13.59
2023-05-11T02:56:35.533Z,13.65
2023-05-11T02:59:03.006Z,13.71
2023-05-11T03:01:30.856Z,13.74
2023-05-11T03:03:58.683Z,13.78
2023-05-11T03:06:27.071Z,13.81
2023-05-11T03:08:54.516Z,13.88
2023-05-11T03:11:21.559Z,13.92
2023-05-11T03:13:50.266Z,13.97
2023-05-11T03:16:19.590Z,14.03
2023-05-11T03:18:49.421Z,14.11
2023-05-11T03:21:18.044Z,14.17
2023-05-11T03:23:45.099Z,14.25
2023-05-11T03:26:12.328Z,14.33
2023-05-11T03:28:40.964Z,14.37
2023-05-11T03:31:08.328Z,14.51
2023-05-11T03:33:35.635Z,14.63
2023-05-11T03:36:03.472Z,14.73
2023-05-11T03:38:31.012Z,14.78
2023-05-11T03:40:58.377Z,14.87
2023-05-11T03:43:27.219Z,15.01
2023-05-11T03:45:55.797Z,15.08
2023-05-11T03:48:22.977Z,15.16
2023-05-11T03:50:51.484Z,15.23
2023-05-11T03:53:18.536Z,15.29
2023-05-11T03:55:45.785Z,15.37
2023-05-11T03:58:12.860Z,15.48
2023-05-11T04:00:40.711Z,15.59
2023-05-11T04:03:11.000Z,15.63
2023-05-11T04:05:38.447Z,15.74
2023-05-11T04:08:08.858Z,15.80
2023-05-11T04:10:36.048Z,15.89
2023-05-11T04:13:04.092Z,15.98
2023-05-11T04:15:31.162Z,16.08
2023-05-11T04:17:58.184Z,16.14
2023-05-11T04:20:25.423Z,16.21
2023-05-11T04:22:52.623Z,16.32
2023-05-11T04:25:19.602Z,16.41
2023-05-11T04:27:46.590Z,16.48
2023-05-11T04:30:13.701Z,16.53
2023-05-11T04:32:41.289Z,16.58
2023-05-11T04:35:10.031Z,16.59
2023-05-11T04:37:38.540Z,16.62
2023-05-11T04:40:08.096Z,16.65
2023-05-11T04:42:40.210Z,16.68
2023-05-11T04:45:11.620Z,16.69
2023-05-11T04:47:38.580Z,16.70
2023-05-11T04:50:07.467Z,16.74
2023-05-11T04:52:35.685Z,16.72
2023-05-11T04:55:02.938Z,16.66
2023-05-11T04:57:30.341Z,16.67
2023-05-11T04:59:57.684Z,16.70
2023-05-11T05:02:24.806Z,16.76
2023-05-11T05:04:52.003Z,16.85
2023-05-11T05:07:18.977Z,16.91
2023-05-11T05:09:46.288Z,17.02
2023-05-11T05:12:15.210Z,17.08
2023-05-11T05:14:43.352Z,17.07
2023-05-11T05:17:10.418Z,17.11
2023-05-11T05:19:38.173Z,17.22
2023-05-11T05:22:05.697Z,17.29
2023-05-11T05:24:33.296Z,17.32
2023-05-11T05:27:00.658Z,17.39
2023-05-11T05:29:27.796Z,17.42
2023-05-11T05:31:54.830Z,17.53
2023-05-11T05:34:23.412Z,17.63
2023-05-11T05:36:50.454Z,17.70
2023-05-11T05:39:17.488Z,17.78
2023-05-11T05:41:44.794Z,17.85
2023-05-11T05:44:12.713Z,17.89
2023-05-11T05:46:40.091Z,17.96
2023-05-11T05:49:07.585Z,18.03
2023-05-11T05:51:37.138Z,18.10
2023-05-11T05:54:04.192Z,18.17
2023-05-11T05:56:32.853Z,18.23
2023-05-11T05:59:00.272Z,18.29
2023-05-11T06:01:27.834Z,18.39
2023-05-11T06:03:56.558Z,18.51
2023-05-11T06:06:24.976Z,18.60
2023-05-11T06:08:51.964Z,18.69
2023-05-11T06:11:19.158Z,18.83
2023-05-11T06:13:46.406Z,18.94
2023-05-11T06:16:13.521Z,19.05
2023-05-11T06:18:40.584Z,19.13
2023-05-11T06:21:07.774Z,19.22
2023-05-11T06:23:35.959Z,19.32
2023-05-11T06:26:03.184Z,19.41
2023-05-11T06:28:31.565Z,19.52
2023-05-11T06:31:03.993Z,19.64
2023-05-11T06:33:33.937Z,19.81
2023-05-11T06:36:08.079Z,19.96
2023-05-11T06:38:36.000Z,20.03
2023-05-11T06:41:03.155Z,20.11
2023-05-11T06:43:30.433Z,20.18
2023-05-11T06:45:59.184Z,20.25
2023-05-11T06:48:29.940Z,20.29
2023-05-11T06:50:59.052Z,20.39
2023-05-11T06:53:26.348Z,20.50
2023-05-11T06:55:54.924Z,20.60
2023-05-11T06:58:22.047Z,20.69
2023-05-11T07:00:49.199Z,20.74
2023-05-11T07:05:44.038Z,19.96
2023-05-11T07:08:11.270Z,20.81
2023-05-11T07:10:38.270Z,20.85
2023-05-11T07:13:05.965Z,20.92
2023-05-11T07:15:33.022Z,20.99
2023-05-11T07:18:01.608Z,21.10
2023-05-11T07:20:28.872Z,21.19
2023-05-11T07:22:59.525Z,21.25
2023-05-11T07:25:26.731Z,21.38
2023-05-11T07:27:53.793Z,21.45
2023-05-11T07:30:22.679Z,21.57
2023-05-11T07:32:50.116Z,21.64
2023-05-11T07:35:17.518Z,21.70
2023-05-11T07:37:44.686Z,21.77
2023-05-11T07:40:12.716Z,21.78
2023-05-11T07:42:39.791Z,21.84
2023-05-11T07:45:07.529Z,21.89
2023-05-11T07:47:36.771Z,21.95
2023-05-11T07:50:05.013Z,22.05
2023-05-11T07:52:32.011Z,22.09
2023-05-11T07:54:59.078Z,22.17
2023-05-11T07:57:26.229Z,22.18
2023-05-11T07:59:53.297Z,22.20
2023-05-11T08:02:20.470Z,22.25
2023-05-11T08:04:47.536Z,22.31
2023-05-11T08:07:14.906Z,22.33
2023-05-11T08:09:41.881Z,22.39
2023-05-11T08:12:09.594Z,22.48
2023-05-11T08:14:37.826Z,22.56
2023-05-11T08:17:05.872Z,22.61
2023-05-11T08:19:32.914Z,22.64
2023-05-11T08:22:01.218Z,22.69
2023-05-11T08:24:28.228Z,22.76
2023-05-11T08:26:55.501Z,22.76
2023-05-11T08:29:22.543Z,22.70
2023-05-11T08:31:50.022Z,22.71
2023-05-11T08:34:20.055Z,22.81
2023-05-11T08:36:47.879Z,22.91
2023-05-11T08:39:21.566Z,23.06
2023-05-11T08:42:00.641Z,23.01
2023-05-11T08:44:27.763Z,23.02
2023-05-11T08:47:08.571Z,22.96
2023-05-11T08:49:38.552Z,22.93
2023-05-11T08:52:07.724Z,22.93
2023-05-11T08:54:34.953Z,22.99
2023-05-11T08:57:02.550Z,23.00
2023-05-11T08:59:29.979Z,22.99
2023-05-11T09:01:57.459Z,22.97
2023-05-11T09:04:24.484Z,22.92
2023-05-11T09:06:51.457Z,22.89
2023-05-11T09:09:18.870Z,22.89
2023-05-11T09:11:46.201Z,22.88
2023-05-11T09:14:13.490Z,22.88
2023-05-11T09:16:40.541Z,23.00
2023-05-11T09:19:08.161Z,23.12
2023-05-11T09:21:35.293Z,23.20
2023-05-11T09:24:02.542Z,23.13
2023-05-11T09:26:32.669Z,23.04
2023-05-11T09:31:46.867Z,23.15
2023-05-11T09:34:21.068Z,23.11
2023-05-11T09:36:52.772Z,23.08
2023-05-11T09:39:41.816Z,23.21
2023-05-11T09:42:18.997Z,23.30
2023-05-11T09:44:46.306Z,23.42
2023-05-11T09:47:17.793Z,23.54
2023-05-11T09:49:46.155Z,23.64
2023-05-11T09:52:14.499Z,23.77
2023-05-11T09:54:49.384Z,23.89
2023-05-11T09:57:27.293Z,23.94
2023-05-11T09:59:54.564Z,23.87
2023-05-11T10:02:26.496Z,23.73
2023-05-11T10:04:54.962Z,23.64
2023-05-11T10:07:29.620Z,23.60
2023-05-11T10:10:01.679Z,23.50
2023-05-11T10:12:29.108Z,23.46
2023-05-11T10:15:04.841Z,23.44
2023-05-11T10:17:32.564Z,23.47
2023-05-11T10:20:00.229Z,23.46
2023-05-11T10:22:29.083Z,23.46
2023-05-11T10:24:59.672Z,23.42
2023-05-11T10:27:26.782Z,23.38
2023-05-11T10:29:54.213Z,23.35
2023-05-11T10:32:21.505Z,23.34
2023-05-11T10:34:50.456Z,23.41
2023-05-11T10:37:17.894Z,23.49
2023-05-11T10:39:47.841Z,23.60
2023-05-11T10:42:45.705Z,23.65
2023-05-11T10:45:26.777Z,23.63
2023-05-11T10:48:42.020Z,23.63
2023-05-11T10:51:47.767Z,23.75
2023-05-11T10:54:20.952Z,23.88
2023-05-11T10:56:50.896Z,23.98
2023-05-11T10:59:34.340Z,24.15
2023-05-11T11:02:02.768Z,24.20
2023-05-11T11:04:47.466Z,24.23
2023-05-11T11:07:18.742Z,24.28
2023-05-11T11:09:54.531Z,24.25
2023-05-11T11:12:22.770Z,24.17
2023-05-11T11:14:58.850Z,24.15
2023-05-11T11:17:29.198Z,24.21
2023-05-11T11:19:57.691Z,24.27
2023-05-11T11:22:47.251Z,24.35
2023-05-11T11:25:15.979Z,24.41
2023-05-11T11:27:49.718Z,24.48
2023-05-11T11:30:20.725Z,24.52
2023-05-11T11:32:48.536Z,24.59
2023-05-11T11:35:34.493Z,24.70
2023-05-11T11:38:02.729Z,24.93
2023-05-11T11:40:50.646Z,24.98
2023-05-11T11:43:28.539Z,24.90
2023-05-11T11:46:00.485Z,24.75
2023-05-11T11:48:42.571Z,24.59
2023-05-11T11:51:13.354Z,24.58
2023-05-11T11:53:44.690Z,24.56
2023-05-11T11:56:14.836Z,24.42
2023-05-11T11:58:41.974Z,24.38
2023-05-11T12:01:10.244Z,24.39
2023-05-11T12:03:37.743Z,24.39
2023-05-11T12:06:05.855Z,24.40
2023-05-11T12:08:32.869Z,24.36
2023-05-11T12:11:00.469Z,24.28
2023-05-11T12:13:27.852Z,24.32
2023-05-11T12:16:15.569Z,24.43
2023-05-11T12:18:43.497Z,24.49
2023-05-11T12:21:19.143Z,24.48
2023-05-11T12:23:56.880Z,24.61
2023-05-11T12:26:25.032Z,24.65
2023-05-11T12:28:52.526Z,24.77
2023-05-11T12:31:19.552Z,24.79
2023-05-11T12:33:50.332Z,24.90
2023-05-11T12:36:18.085Z,24.95
2023-05-11T12:38:46.252Z,24.89
2023-05-11T12:41:22.028Z,24.85
2023-05-11T12:43:56.402Z,24.78
2023-05-11T12:46:23.719Z,24.76
2023-05-11T12:48:51.335Z,24.70
2023-05-11T12:51:50.708Z,24.66
2023-05-11T12:54:31.322Z,24.69
2023-05-11T12:56:58.886Z,24.71
2023-05-11T12:59:30.198Z,24.63
2023-05-11T13:02:16.950Z,24.55
2023-05-11T13:04:44.616Z,24.53
2023-05-11T13:07:12.525Z,24.56
2023-05-11T13:09:40.164Z,24.60
2023-05-11T13:12:17.583Z,24.61
2023-05-11T13:14:48.919Z,24.68
2023-05-11T13:17:37.079Z,24.75
2023-05-11T13:20:21.267Z,24.82
2023-05-11T13:22:48.746Z,24.86
2023-05-11T13:25:17.314Z,24.89
2023-05-11T13:27:44.657Z,24.91
2023-05-11T13:30:12.124Z,24.95
2023-05-11T13:32:39.395Z,24.95
2023-05-11T13:35:06.951Z,24.94
2023-05-11T13:37:33.965Z,24.98
2023-05-11T13:40:01.030Z,25.03
2023-05-11T13:42:28.803Z,25.08
2023-05-11T13:44:56.012Z,25.15
2023-05-11T13:47:24.242Z,25.10
2023-05-11T13:49:51.533Z,25.03
2023-05-11T13:52:18.881Z,25.02
2023-05-11T13:54:45.871Z,25.05
2023-05-11T13:57:13.521Z,25.16
2023-05-11T13:59:40.715Z,25.26
2023-05-11T14:02:07.978Z,25.44
2023-05-11T14:04:35.060Z,25.55
2023-05-11T14:07:02.018Z,25.71
2023-05-11T14:09:30.941Z,25.79
2023-05-11T14:11:58.060Z,25.84
2023-05-11T14:14:25.243Z,25.83
2023-05-11T14:16:52.438Z,25.93
2023-05-11T14:19:19.779Z,26.05
2023-05-11T14:21:47.082Z,26.11
2023-05-11T14:24:14.146Z,26.14
2023-05-11T14:26:41.749Z,26.13
2023-05-11T14:29:08.819Z,26.12
2023-05-11T14:31:36.613Z,26.18
2023-05-11T14:34:04.499Z,26.26
2023-05-11T14:36:32.143Z,25.89
2023-05-11T14:38:59.153Z,25.24
2023-05-11T14:41:26.242Z,24.77
2023-05-11T14:43:53.325Z,24.33
2023-05-11T14:46:21.756Z,24.23
2023-05-11T14:48:48.960Z,24.51
2023-05-11T14:51:16.084Z,24.44
2023-05-11T14:53:43.135Z,24.14
2023-05-11T14:56:10.203Z,24.43
2023-05-11T14:58:37.744Z,24.92
2023-05-11T15:01:05.252Z,24.54
2023-05-11T15:03:32.382Z,24.29
2023-05-11T15:05:59.936Z,24.69
2023-05-11T15:08:30.461Z,25.03
2023-05-11T15:10:58.476Z,25.24
2023-05-11T15:13:25.720Z,25.26
2023-05-11T15:15:53.164Z,25.17
2023-05-11T15:18:20.525Z,24.98
2023-05-11T15:20:47.881Z,25.52
2023-05-11T15:23:17.208Z,25.67
2023-05-11T15:25:47.321Z,25.75
2023-05-11T15:28:14.964Z,25.90
2023-05-11T15:30:42.343Z,25.95
2023-05-11T15:33:10.283Z,25.86
2023-05-11T15:35:38.103Z,25.80
2023-05-11T15:38:05.313Z,25.82
2023-05-11T15:40:32.887Z,25.50
2023-05-11T15:43:00.565Z,24.99
2023-05-11T15:45:29.019Z,25.46
2023-05-11T15:47:56.233Z,25.40
2023-05-11T15:50:23.471Z,25.48
2023-05-11T15:52:50.888Z,25.75
2023-05-11T15:55:18.047Z,25.90
2023-05-11T15:57:45.043Z,25.96
2023-05-11T16:00:13.999Z,26.03
2023-05-11T16:02:42.888Z,26.02
2023-05-11T16:05:10.286Z,26.09
2023-05-11T16:07:37.412Z,26.11
2023-05-11T16:10:04.896Z,25.88
2023-05-11T16:12:32.080Z,25.57
2023-05-11T16:14:59.016Z,25.48
2023-05-11T16:17:26.550Z,25.22
2023-05-11T16:19:53.753Z,24.95
2023-05-11T16:22:20.753Z,24.72
2023-05-11T16:24:48.091Z,24.55
2023-05-11T16:27:15.158Z,24.41
2023-05-11T16:29:42.442Z,24.27
2023-05-11T16:32:09.621Z,24.19
2023-05-11T16:34:36.668Z,24.15
2023-05-11T16:37:03.869Z,23.93
2023-05-11T16:39:30.919Z,23.59
2023-05-11T16:41:58.344Z,23.26
2023-05-11T16:44:25.354Z,23.05
2023-05-11T16:46:52.873Z,22.88
2023-05-11T16:49:20.564Z,22.71
2023-05-11T16:51:47.595Z,22.55
2023-05-11T16:54:15.217Z,22.45
2023-05-11T16:56:42.934Z,22.34
2023-05-11T16:59:10.803Z,22.15
2023-05-11T17:01:38.256Z,22.21
2023-05-11T17:04:05.417Z,21.95
2023-05-11T17:06:33.086Z,21.71
2023-05-11T17:09:00.155Z,21.56
2023-05-11T17:11:27.138Z,21.43
2023-05-11T17:13:54.166Z,21.32
2023-05-11T17:16:21.391Z,21.20
2023-05-11T17:18:48.678Z,21.14
2023-05-11T17:21:17.017Z,21.14
2023-05-11T17:23:45.254Z,21.00
2023-05-11T17:26:12.916Z,20.78
2023-05-11T17:28:40.112Z,20.69
2023-05-11T17:31:08.871Z,20.48
2023-05-11T17:33:36.337Z,20.40
2023-05-11T17:36:04.256Z,20.32
2023-05-11T17:38:31.512Z,20.21
2023-05-11T17:40:59.561Z,20.11
2023-05-11T17:43:26.817Z,19.97
2023-05-11T17:45:54.130Z,19.87
2023-05-11T17:48:21.181Z,19.81
2023-05-11T17:50:48.303Z,19.73
2023-05-11T17:53:15.551Z,19.63
2023-05-11T17:55:43.067Z,19.55
2023-05-11T17:58:10.195Z,19.43
2023-05-11T18:00:37.780Z,19.32
2023-05-11T18:03:05.765Z,19.23
2023-05-11T18:05:44.805Z,19.15
2023-05-11T18:08:14.696Z,19.06
2023-05-11T18:10:42.080Z,18.98
2023-05-11T18:13:09.227Z,18.94
2023-05-11T18:15:36.384Z,18.85
2023-05-11T18:18:03.664Z,18.77
2023-05-11T18:20:31.048Z,18.82
2023-05-11T18:22:58.320Z,19.50
2023-05-11T18:25:28.016Z,19.52
2023-05-11T18:27:55.218Z,19.50
2023-05-11T18:30:22.440Z,19.47
2023-05-11T18:32:49.716Z,19.44
2023-05-11T18:35:18.618Z,19.38
2023-05-11T18:37:45.983Z,19.30
2023-05-11T18:40:13.236Z,19.24
2023-05-11T18:42:40.186Z,19.20
2023-05-11T18:45:08.265Z,19.21
2023-05-11T18:47:35.761Z,19.25
2023-05-11T18:50:03.643Z,19.33
2023-05-11T18:52:31.018Z,19.40
2023-05-11T18:54:58.632Z,19.42
2023-05-11T18:57:25.835Z,19.43
2023-05-11T18:59:53.126Z,19.37
2023-05-11T19:02:20.427Z,19.35
2023-05-11T19:04:47.558Z,19.37
2023-05-11T19:07:14.933Z,19.37
2023-05-11T19:09:42.704Z,19.34
2023-05-11T19:12:09.905Z,19.32
2023-05-11T19:14:37.721Z,19.30
2023-05-11T19:17:05.389Z,19.24
2023-05-11T19:21:53.486Z,18.38
2023-05-11T19:24:20.666Z,19.13
2023-05-11T19:26:58.611Z,19.09
2023-05-11T19:29:33.297Z,19.00
2023-05-11T19:32:02.162Z,18.91
2023-05-11T19:34:29.289Z,18.84
2023-05-11T19:36:58.698Z,18.75
2023-05-11T19:39:25.956Z,18.66
2023-05-11T19:41:52.881Z,18.62
2023-05-11T19:44:20.149Z,18.53
2023-05-11T19:46:47.520Z,18.47
2023-05-11T19:49:15.305Z,18.40
2023-05-11T19:51:44.932Z,18.34
2023-05-11T19:54:11.984Z,18.27
2023-05-11T19:56:53.405Z,18.21
2023-05-11T19:59:22.392Z,18.21
2023-05-11T20:01:49.555Z,18.15
2023-05-11T20:04:17.159Z,18.12
2023-05-11T20:06:44.425Z,18.06
2023-05-11T20:09:12.080Z,18.09
2023-05-11T20:11:39.177Z,18.12
2023-05-11T20:14:06.309Z,18.15
2023-05-11T20:16:33.384Z,18.19
2023-05-11T20:19:00.735Z,18.22
2023-05-11T20:21:28.401Z,18.29
2023-05-11T20:23:56.610Z,18.35
2023-05-11T20:26:23.602Z,18.38
2023-05-11T20:28:50.606Z,18.40
2023-05-11T20:31:17.909Z,18.42
2023-05-11T20:36:15.281Z,18.42
2023-05-11T20:38:42.359Z,18.45
2023-05-11T20:41:10.337Z,18.44
2023-05-11T20:43:38.048Z,18.43
2023-05-11T20:46:05.867Z,18.46
2023-05-11T20:48:40.693Z,18.51
2023-05-11T20:51:09.323Z,18.55
2023-05-11T20:53:36.357Z,18.46
2023-05-11T20:56:03.694Z,18.38
2023-05-11T20:58:31.840Z,18.37
2023-05-11T21:00:59.207Z,18.35
2023-05-11T21:03:26.796Z,18.33
2023-05-11T21:05:54.049Z,18.31
2023-05-11T21:08:21.323Z,18.31
2023-05-11T21:10:48.503Z,18.26
2023-05-11T21:13:16.108Z,18.24
2023-05-11T21:15:43.068Z,18.24
2023-05-11T21:18:10.410Z,18.24
2023-05-11T21:20:37.805Z,18.24
2023-05-11T21:23:04.940Z,18.23
2023-05-11T21:25:32.004Z,18.24
2023-05-11T21:28:01.209Z,18.22
2023-05-11T21:30:28.453Z,18.18
2023-05-11T21:32:55.738Z,18.09
2023-05-11T21:35:22.866Z,17.99
2023-05-11T21:37:50.172Z,17.96
2023-05-11T21:40:18.269Z,17.94
2023-05-11T21:42:45.814Z,17.94
2023-05-11T21:45:13.358Z,17.94
2023-05-11T21:47:40.511Z,17.87
2023-05-11T21:50:08.867Z,17.82
2023-05-11T21:52:37.135Z,17.75
2023-05-11T21:55:04.920Z,17.67
2023-05-11T21:57:32.136Z,17.57
2023-05-11T21:59:59.456Z,17.42
2023-05-11T22:02:27.318Z,17.33
2023-05-11T22:04:54.354Z,17.31
2023-05-11T22:07:21.406Z,17.35
2023-05-11T22:09:48.529Z,17.30
2023-05-11T22:12:15.628Z,17.28
2023-05-11T22:14:42.974Z,17.25
2023-05-11T22:17:11.074Z,17.20
2023-05-11T22:19:38.249Z,17.22
2023-05-11T22:22:05.554Z,17.22
2023-05-11T22:24:32.554Z,17.25
2023-05-11T22:26:59.954Z,17.24
2023-05-11T22:29:27.256Z,17.20
2023-05-11T22:31:54.317Z,17.22
2023-05-11T22:34:21.766Z,17.21
2023-05-11T22:36:48.684Z,17.17
2023-05-11T22:39:15.670Z,17.11
2023-05-11T22:41:42.655Z,17.09
2023-05-11T22:44:09.705Z,17.10
2023-05-11T22:46:37.265Z,17.09
2023-05-11T22:49:04.672Z,17.07
2023-05-11T22:51:31.935Z,17.04
2023-05-11T22:53:59.082Z,17.00
2023-05-11T22:56:26.184Z,16.96
2023-05-11T22:58:55.103Z,16.92
2023-05-11T23:01:22.091Z,16.88
2023-05-11T23:03:49.248Z,16.85
2023-05-11T23:06:16.515Z,16.86
2023-05-11T23:08:43.480Z,16.87
2023-05-11T23:11:10.558Z,16.88
2023-05-11T23:13:38.471Z,16.88
2023-05-11T23:16:06.242Z,16.86
2023-05-11T23:18:33.482Z,16.78
2023-05-11T23:21:00.739Z,16.73
2023-05-11T23:23:27.854Z,16.68
2023-05-11T23:25:55.115Z,16.65
2023-05-11T23:28:22.262Z,16.60
2023-05-11T23:30:49.181Z,16.53
2023-05-11T23:33:16.182Z,16.57
2023-05-11T23:35:43.693Z,16.59
2023-05-11T23:38:10.637Z,16.62
2023-05-11T23:40:38.758Z,16.61
2023-05-11T23:43:05.779Z,16.61
2023-05-11T23:45:32.839Z,16.67
2023-05-11T23:48:00.316Z,16.70
2023-05-11T23:50:27.636Z,16.69
2023-05-11T23:52:55.249Z,16.69
2023-05-11T23:55:24.440Z,16.71
2023-05-11T23:57:51.450Z,16.68
